createdAt,value
2023-06-19T00:01:28.381Z,18.32
2023-06-19T00:03:54.912Z,18.33
2023-06-19T00:06:21.484Z,18.27
2023-06-19T00:08:47.980Z,18.27
2023-06-19T00:11:14.544Z,18.20
2023-06-19T00:13:41.034Z,18.20
2023-06-19T00:16:07.623Z,18.05
2023-06-19T00:18:41.603Z,18.12
2023-06-19T00:21:09.381Z,17.92
2023-06-19T00:23:36.185Z,17.83
2023-06-19T00:26:04.623Z,17.73
2023-06-19T00:28:31.954Z,17.76
2023-06-19T00:30:58.512Z,17.79
2023-06-19T00:33:25.246Z,17.68
2023-06-19T00:35:52.535Z,17.62
2023-06-19T00:38:19.164Z,17.68
2023-06-19T00:40:45.634Z,17.57
2023-06-19T00:43:12.150Z,17.51
2023-06-19T00:45:40.008Z,17.43
2023-06-19T00:48:07.277Z,17.33
2023-06-19T00:50:34.251Z,17.39
2023-06-19T00:53:04.399Z,17.42
2023-06-19T00:55:33.240Z,17.48
2023-06-19T00:58:01.717Z,17.52
2023-06-19T01:00:28.313Z,17.36
2023-06-19T01:02:54.895Z,17.34
2023-06-19T01:05:21.557Z,17.16
2023-06-19T01:08:16.173Z,17.10
2023-06-19T01:10:54.799Z,17.01
2023-06-19T01:13:32.264Z,16.92
2023-06-19T01:15:59.818Z,16.94
2023-06-19T01:18:28.004Z,16.96
2023-06-19T01:20:54.519Z,16.82
2023-06-19T01:23:21.209Z,16.72
2023-06-19T01:25:47.639Z,16.71
2023-06-19T01:28:14.464Z,16.69
2023-06-19T01:30:43.002Z,16.59
2023-06-19T01:33:27.423Z,16.66
2023-06-19T01:35:54.567Z,16.59
2023-06-19T01:38:23.032Z,16.78
2023-06-19T01:40:51.193Z,16.62
2023-06-19T01:43:20.451Z,16.45
2023-06-19T01:45:47.021Z,16.64
2023-06-19T01:48:15.634Z,16.72
2023-06-19T01:50:51.747Z,16.60
2023-06-19T01:53:18.414Z,16.61
2023-06-19T01:55:45.016Z,16.83
2023-06-19T01:58:11.510Z,16.79
2023-06-19T02:00:38.509Z,16.75
2023-06-19T02:03:05.726Z,16.76
2023-06-19T02:05:32.540Z,16.80
2023-06-19T02:07:59.218Z,16.78
2023-06-19T02:10:25.855Z,16.76
2023-06-19T02:12:52.341Z,16.91
2023-06-19T02:15:18.854Z,17.02
2023-06-19T02:17:45.372Z,17.11
2023-06-19T02:20:12.603Z,17.12
2023-06-19T02:22:40.181Z,17.07
2023-06-19T02:25:07.533Z,16.91
2023-06-19T02:27:34.028Z,16.79
2023-06-19T02:30:00.491Z,16.67
2023-06-19T02:32:27.669Z,16.57
2023-06-19T02:34:54.198Z,16.75
2023-06-19T02:37:20.629Z,16.77
2023-06-19T02:39:47.094Z,16.62
2023-06-19T02:42:13.476Z,16.65
2023-06-19T02:44:39.848Z,16.63
2023-06-19T02:47:06.652Z,16.50
2023-06-19T02:49:33.255Z,16.69
2023-06-19T02:51:59.698Z,16.75
2023-06-19T02:54:26.236Z,16.78
2023-06-19T02:56:52.595Z,16.76
2023-06-19T02:59:19.000Z,16.76
2023-06-19T03:01:45.886Z,16.77
2023-06-19T03:04:13.569Z,16.90
2023-06-19T03:06:40.930Z,16.87
2023-06-19T03:09:13.056Z,16.92
2023-06-19T03:11:42.505Z,16.92
2023-06-19T03:14:09.770Z,17.10
2023-06-19T03:16:36.489Z,17.10
2023-06-19T03:19:03.373Z,17.01
2023-06-19T03:21:29.983Z,16.84
2023-06-19T03:23:56.576Z,16.85
2023-06-19T03:26:23.403Z,16.92
2023-06-19T03:28:49.889Z,16.94
2023-06-19T03:31:16.517Z,16.95
2023-06-19T03:33:42.947Z,17.03
2023-06-19T03:36:09.969Z,16.90
2023-06-19T03:38:36.387Z,16.92
2023-06-19T03:41:03.174Z,16.92
2023-06-19T03:43:29.644Z,16.95
2023-06-19T03:45:56.094Z,16.92
2023-06-19T03:48:22.519Z,16.92
2023-06-19T03:50:49.095Z,16.96
2023-06-19T03:53:15.580Z,16.98
2023-06-19T03:55:42.033Z,16.97
2023-06-19T03:58:08.515Z,17.10
2023-06-19T04:00:34.999Z,17.12
2023-06-19T04:03:01.499Z,17.18
2023-06-19T04:05:28.239Z,17.24
2023-06-19T04:07:54.594Z,17.19
2023-06-19T04:10:21.150Z,17.19
2023-06-19T04:12:48.839Z,17.22
2023-06-19T04:15:15.320Z,17.19
2023-06-19T04:17:41.824Z,17.22
2023-06-19T04:20:12.194Z,17.24
2023-06-19T04:22:39.854Z,17.27
2023-06-19T04:25:08.242Z,17.36
2023-06-19T04:27:35.137Z,17.43
2023-06-19T04:30:03.433Z,17.44
2023-06-19T04:32:30.097Z,17.42
2023-06-19T04:34:56.695Z,17.50
2023-06-19T04:37:23.344Z,17.52
2023-06-19T04:39:49.767Z,17.57
2023-06-19T04:42:21.683Z,17.73
2023-06-19T04:44:48.455Z,17.79
2023-06-19T04:47:18.424Z,17.84
2023-06-19T04:49:44.830Z,18.16
2023-06-19T04:52:12.341Z,18.39
2023-06-19T04:54:39.226Z,18.65
2023-06-19T04:57:06.336Z,18.93
2023-06-19T04:59:33.013Z,19.11
2023-06-19T05:01:59.598Z,19.27
2023-06-19T05:04:26.696Z,19.28
2023-06-19T05:06:53.274Z,19.57
2023-06-19T05:09:20.992Z,19.88
2023-06-19T05:11:47.452Z,20.04
2023-06-19T05:14:15.449Z,19.99
2023-06-19T05:16:42.241Z,19.97
2023-06-19T05:19:09.067Z,20.19
2023-06-19T05:21:35.935Z,20.37
2023-06-19T05:24:02.841Z,20.55
2023-06-19T05:26:32.066Z,20.71
2023-06-19T05:28:58.546Z,20.73
2023-06-19T05:31:25.012Z,20.33
2023-06-19T05:33:51.382Z,20.51
2023-06-19T05:36:17.905Z,20.83
2023-06-19T05:38:44.394Z,21.29
2023-06-19T05:41:10.993Z,21.51
2023-06-19T05:43:37.417Z,21.53
2023-06-19T05:46:03.995Z,21.72
2023-06-19T05:48:30.501Z,22.15
2023-06-19T05:50:56.919Z,22.54
2023-06-19T05:53:23.634Z,22.69
2023-06-19T05:55:50.213Z,23.15
2023-06-19T05:58:20.951Z,23.35
2023-06-19T06:00:48.143Z,23.59
2023-06-19T06:03:14.688Z,23.89
2023-06-19T06:05:41.395Z,23.86
2023-06-19T06:08:07.950Z,23.64
2023-06-19T06:10:34.443Z,23.67
2023-06-19T06:13:00.961Z,23.60
2023-06-19T06:15:27.445Z,23.02
2023-06-19T06:17:54.039Z,23.25
2023-06-19T06:20:20.628Z,23.12
2023-06-19T06:22:47.159Z,23.41
2023-06-19T06:25:14.242Z,24.06
2023-06-19T06:27:41.354Z,23.91
2023-06-19T06:30:08.304Z,23.63
2023-06-19T06:32:35.190Z,23.97
2023-06-19T06:35:01.925Z,24.48
2023-06-19T06:37:28.409Z,24.39
2023-06-19T06:39:54.871Z,24.17
2023-06-19T06:42:21.666Z,24.17
2023-06-19T06:44:48.208Z,24.01
2023-06-19T06:47:14.851Z,23.90
2023-06-19T06:49:41.378Z,23.98
2023-06-19T06:52:08.392Z,23.81
2023-06-19T06:54:35.012Z,24.16
2023-06-19T06:57:01.506Z,24.67
2023-06-19T06:59:28.579Z,24.99
2023-06-19T07:01:58.371Z,24.71
2023-06-19T07:04:25.086Z,24.74
2023-06-19T07:06:51.907Z,24.58
2023-06-19T07:09:19.076Z,24.38
2023-06-19T07:11:45.542Z,24.78
2023-06-19T07:14:12.096Z,25.09
2023-06-19T07:16:38.621Z,25.18
2023-06-19T07:19:05.072Z,25.29
2023-06-19T07:21:32.112Z,25.08
2023-06-19T07:23:58.807Z,25.19
2023-06-19T07:26:25.306Z,25.53
2023-06-19T07:28:51.685Z,25.58
2023-06-19T07:31:18.130Z,25.51
2023-06-19T07:33:44.536Z,25.60
2023-06-19T07:36:15.252Z,25.67
2023-06-19T07:38:43.536Z,26.12
2023-06-19T07:41:11.103Z,26.14
2023-06-19T07:43:38.496Z,25.99
2023-06-19T07:46:05.574Z,26.12
2023-06-19T07:48:32.151Z,25.50
2023-06-19T07:50:58.569Z,26.09
2023-06-19T07:53:24.966Z,26.10
2023-06-19T07:55:51.495Z,26.01
2023-06-19T07:58:18.208Z,25.81
2023-06-19T08:00:44.918Z,25.64
2023-06-19T08:03:11.666Z,25.29
2023-06-19T08:05:38.557Z,25.69
2023-06-19T08:08:05.364Z,26.17
2023-06-19T08:10:32.146Z,26.04
2023-06-19T08:12:58.809Z,26.09
2023-06-19T08:15:28.015Z,26.90
2023-06-19T08:17:54.519Z,26.74
2023-06-19T08:20:22.494Z,26.73
2023-06-19T08:22:49.255Z,26.61
2023-06-19T08:25:16.362Z,27.44
2023-06-19T08:27:42.804Z,27.39
2023-06-19T08:30:09.563Z,27.16
2023-06-19T08:32:36.181Z,27.27
2023-06-19T08:35:04.024Z,26.08
2023-06-19T08:37:30.658Z,26.47
2023-06-19T08:39:57.247Z,27.58
2023-06-19T08:42:23.893Z,27.91
2023-06-19T08:44:50.564Z,27.48
2023-06-19T08:47:17.640Z,26.99
2023-06-19T08:49:44.734Z,27.18
2023-06-19T08:52:11.400Z,27.32
2023-06-19T08:54:44.909Z,27.45
2023-06-19T08:57:13.438Z,27.59
2023-06-19T08:59:40.355Z,27.73
2023-06-19T09:02:07.523Z,27.82
2023-06-19T09:04:34.951Z,26.93
2023-06-19T09:07:05.367Z,27.31
2023-06-19T09:09:33.983Z,26.93
2023-06-19T09:12:01.855Z,27.03
2023-06-19T09:14:45.956Z,27.74
2023-06-19T09:17:18.299Z,26.63
2023-06-19T09:19:52.869Z,26.24
2023-06-19T09:22:21.967Z,26.37
2023-06-19T09:24:49.689Z,27.30
2023-06-19T09:27:21.704Z,27.82
2023-06-19T09:29:50.791Z,28.25
2023-06-19T09:32:29.333Z,27.23
2023-06-19T09:34:59.606Z,28.62
2023-06-19T09:37:28.818Z,29.11
2023-06-19T09:40:11.805Z,28.66
2023-06-19T09:42:40.440Z,27.85
2023-06-19T09:45:09.047Z,27.61
2023-06-19T09:47:45.779Z,27.10
2023-06-19T09:50:16.053Z,28.09
2023-06-19T09:52:44.616Z,28.27
2023-06-19T09:55:14.199Z,28.77
2023-06-19T09:57:42.781Z,28.23
2023-06-19T10:00:16.692Z,26.62
2023-06-19T10:02:45.585Z,26.92
2023-06-19T10:05:15.822Z,27.08
2023-06-19T10:07:44.815Z,27.68
2023-06-19T10:10:23.269Z,28.11
2023-06-19T10:12:50.589Z,27.99
2023-06-19T10:15:18.842Z,27.87
2023-06-19T10:18:01.264Z,27.62
2023-06-19T10:20:38.249Z,27.81
2023-06-19T10:23:18.662Z,27.69
2023-06-19T10:25:48.985Z,27.67
2023-06-19T10:28:23.829Z,28.03
2023-06-19T10:31:08.280Z,28.51
2023-06-19T10:33:37.835Z,27.89
2023-06-19T10:36:24.415Z,28.23
2023-06-19T10:38:50.982Z,28.42
2023-06-19T10:41:19.264Z,28.70
2023-06-19T10:44:07.011Z,28.86
2023-06-19T10:46:36.752Z,29.63
2023-06-19T10:49:06.038Z,29.45
2023-06-19T10:51:35.652Z,29.53
2023-06-19T10:54:02.266Z,29.62
2023-06-19T10:56:29.865Z,30.05
2023-06-19T10:59:12.743Z,29.75
2023-06-19T11:01:42.351Z,29.54
2023-06-19T11:04:11.761Z,29.72
2023-06-19T11:06:39.664Z,29.21
2023-06-19T11:09:08.186Z,29.43
2023-06-19T11:11:48.563Z,29.25
2023-06-19T11:14:18.067Z,28.67
2023-06-19T11:16:47.948Z,28.63
2023-06-19T11:19:19.873Z,28.76
2023-06-19T11:21:49.702Z,28.63
2023-06-19T11:24:17.049Z,28.44
2023-06-19T11:26:50.312Z,28.59
2023-06-19T11:29:27.956Z,28.40
2023-06-19T11:32:07.387Z,27.76
2023-06-19T11:34:37.540Z,27.94
2023-06-19T11:37:16.450Z,28.37
2023-06-19T11:39:47.290Z,28.35
2023-06-19T11:42:13.775Z,28.09
2023-06-19T11:44:56.151Z,28.45
2023-06-19T11:47:22.838Z,28.00
2023-06-19T11:49:50.481Z,28.25
2023-06-19T11:52:17.767Z,28.59
2023-06-19T11:54:44.600Z,28.53
2023-06-19T11:57:14.425Z,28.93
2023-06-19T11:59:42.016Z,27.85
2023-06-19T12:02:09.552Z,27.88
2023-06-19T12:04:37.137Z,28.51
2023-06-19T12:07:05.153Z,28.72
2023-06-19T12:09:35.592Z,27.88
2023-06-19T12:12:02.465Z,27.87
2023-06-19T12:14:28.922Z,28.30
2023-06-19T12:16:55.437Z,29.20
2023-06-19T12:19:22.038Z,29.39
2023-06-19T12:21:48.511Z,30.05
2023-06-19T12:24:15.290Z,30.11
2023-06-19T12:26:42.087Z,30.89
2023-06-19T12:29:09.132Z,30.31
2023-06-19T12:31:37.406Z,30.50
2023-06-19T12:34:17.011Z,30.12
2023-06-19T12:36:51.884Z,30.35
2023-06-19T12:39:18.555Z,30.75
2023-06-19T12:41:45.071Z,30.54
2023-06-19T12:44:16.809Z,30.91
2023-06-19T12:46:43.511Z,31.15
2023-06-19T12:49:19.161Z,31.39
2023-06-19T12:51:52.636Z,31.66
2023-06-19T12:54:25.758Z,30.25
2023-06-19T12:57:25.587Z,31.44
2023-06-19T12:59:52.188Z,30.83
2023-06-19T13:02:18.747Z,30.07
2023-06-19T13:04:45.404Z,31.24
2023-06-19T13:07:11.980Z,31.43
2023-06-19T13:09:38.480Z,30.49
2023-06-19T13:12:05.480Z,29.51
2023-06-19T13:14:33.236Z,29.40
2023-06-19T13:16:59.770Z,29.80
2023-06-19T13:19:26.455Z,31.03
2023-06-19T13:21:53.174Z,31.02
2023-06-19T13:24:19.817Z,31.10
2023-06-19T13:26:46.446Z,31.19
2023-06-19T13:29:13.314Z,30.76
2023-06-19T13:31:39.761Z,31.61
2023-06-19T13:34:06.410Z,30.98
2023-06-19T13:36:39.465Z,31.35
2023-06-19T13:39:06.070Z,31.02
2023-06-19T13:41:35.744Z,31.20
2023-06-19T13:44:02.459Z,31.31
2023-06-19T13:46:41.330Z,30.50
2023-06-19T13:49:12.002Z,30.65
2023-06-19T13:51:41.240Z,29.55
2023-06-19T13:54:10.711Z,29.24
2023-06-19T13:56:42.962Z,29.42
2023-06-19T13:59:10.130Z,28.80
2023-06-19T14:01:36.648Z,29.48
2023-06-19T14:04:03.635Z,31.22
2023-06-19T14:06:30.154Z,32.40
2023-06-19T14:08:59.675Z,32.90
2023-06-19T14:11:26.191Z,33.57
2023-06-19T14:13:52.645Z,34.72
2023-06-19T14:16:19.112Z,33.97
2023-06-19T14:18:45.604Z,33.50
2023-06-19T14:21:11.996Z,32.68
2023-06-19T14:23:44.014Z,32.10
2023-06-19T14:26:12.081Z,31.79
2023-06-19T14:28:40.259Z,32.60
2023-06-19T14:31:07.184Z,32.67
2023-06-19T14:33:35.742Z,32.91
2023-06-19T14:36:03.882Z,33.33
2023-06-19T14:38:34.329Z,33.35
2023-06-19T14:41:02.459Z,32.65
2023-06-19T14:43:31.661Z,32.79
2023-06-19T14:45:59.804Z,31.95
2023-06-19T14:48:26.233Z,31.41
2023-06-19T14:50:53.314Z,32.12
2023-06-19T14:53:19.794Z,32.88
2023-06-19T14:55:48.045Z,32.61
2023-06-19T14:58:15.290Z,32.50
2023-06-19T15:00:42.405Z,31.00
2023-06-19T15:03:09.083Z,31.29
2023-06-19T15:05:35.763Z,30.74
2023-06-19T15:08:02.383Z,29.92
2023-06-19T15:10:28.987Z,30.10
2023-06-19T15:12:55.434Z,29.26
2023-06-19T15:15:21.893Z,28.89
2023-06-19T15:17:48.345Z,28.88
2023-06-19T15:20:17.610Z,28.98
2023-06-19T15:22:44.112Z,28.75
2023-06-19T15:25:10.697Z,28.68
2023-06-19T15:27:37.230Z,28.35
2023-06-19T15:30:04.073Z,28.29
2023-06-19T15:32:30.686Z,28.11
2023-06-19T15:34:57.109Z,27.71
2023-06-19T15:37:23.893Z,27.55
2023-06-19T15:39:52.610Z,27.43
2023-06-19T15:42:19.039Z,27.45
2023-06-19T15:44:45.572Z,27.35
2023-06-19T15:47:11.997Z,27.27
2023-06-19T15:49:38.839Z,27.26
2023-06-19T15:52:06.030Z,27.28
2023-06-19T15:54:32.439Z,27.49
2023-06-19T15:56:59.570Z,27.37
2023-06-19T15:59:26.158Z,27.52
2023-06-19T16:01:52.722Z,27.40
2023-06-19T16:04:19.213Z,27.41
2023-06-19T16:06:45.712Z,27.34
2023-06-19T16:09:12.135Z,27.48
2023-06-19T16:11:38.714Z,27.31
2023-06-19T16:14:05.218Z,27.66
2023-06-19T16:16:31.669Z,27.59
2023-06-19T16:18:58.050Z,27.68
2023-06-19T16:21:25.578Z,27.47
2023-06-19T16:23:52.000Z,27.71
2023-06-19T16:26:18.486Z,27.83
2023-06-19T16:28:44.862Z,27.83
2023-06-19T16:31:12.220Z,27.82
2023-06-19T16:33:39.661Z,27.87
2023-06-19T16:36:08.191Z,27.39
2023-06-19T16:38:35.377Z,27.87
2023-06-19T16:41:01.797Z,27.71
2023-06-19T16:43:28.273Z,27.34
2023-06-19T16:45:54.833Z,27.25
2023-06-19T16:48:21.359Z,27.00
2023-06-19T16:50:47.850Z,27.14
2023-06-19T16:53:14.451Z,27.16
2023-06-19T16:55:40.995Z,27.02
2023-06-19T16:58:07.442Z,26.87
2023-06-19T17:00:33.975Z,26.73
2023-06-19T17:03:00.598Z,26.65
2023-06-19T17:05:27.881Z,26.63
2023-06-19T17:07:54.477Z,26.71
2023-06-19T17:10:20.961Z,26.69
2023-06-19T17:12:47.458Z,26.71
2023-06-19T17:15:13.919Z,26.73
2023-06-19T17:17:40.839Z,26.73
2023-06-19T17:20:09.940Z,26.54
2023-06-19T17:22:36.726Z,26.46
2023-06-19T17:25:03.353Z,26.38
2023-06-19T17:27:29.847Z,26.37
2023-06-19T17:29:56.295Z,26.47
2023-06-19T17:32:22.793Z,26.32
2023-06-19T17:34:49.505Z,26.59
2023-06-19T17:37:15.999Z,26.68
2023-06-19T17:39:43.284Z,26.90
2023-06-19T17:42:12.675Z,26.87
2023-06-19T17:44:39.183Z,27.10
2023-06-19T17:47:05.864Z,26.87
2023-06-19T17:49:32.301Z,26.93
2023-06-19T17:51:59.106Z,26.84
2023-06-19T17:54:25.727Z,26.95
2023-06-19T17:56:52.274Z,26.93
2023-06-19T17:59:18.860Z,26.76
2023-06-19T18:01:45.304Z,26.84
2023-06-19T18:04:12.009Z,26.91
2023-06-19T18:06:38.507Z,26.74
2023-06-19T18:09:06.873Z,26.66
2023-06-19T18:11:33.444Z,26.15
2023-06-19T18:14:00.000Z,26.25
2023-06-19T18:16:28.093Z,26.10
2023-06-19T18:18:54.621Z,25.82
2023-06-19T18:21:21.276Z,25.81
2023-06-19T18:23:48.521Z,25.78
2023-06-19T18:26:16.447Z,25.82
2023-06-19T18:28:42.940Z,25.74
2023-06-19T18:31:09.429Z,25.69
2023-06-19T18:33:35.906Z,25.58
2023-06-19T18:36:02.399Z,25.58
2023-06-19T18:38:30.998Z,25.65
2023-06-19T18:41:06.373Z,25.63
2023-06-19T18:43:35.288Z,25.62
2023-06-19T18:46:02.455Z,25.63
2023-06-19T18:48:32.188Z,25.53
2023-06-19T18:50:59.207Z,25.48
2023-06-19T18:53:25.665Z,25.44
2023-06-19T18:55:55.444Z,25.28
2023-06-19T18:58:22.882Z,25.31
2023-06-19T19:00:50.022Z,25.33
2023-06-19T19:03:16.763Z,25.13
2023-06-19T19:05:43.405Z,25.19
2023-06-19T19:08:11.628Z,25.22
2023-06-19T19:10:38.656Z,25.19
2023-06-19T19:13:05.413Z,25.12
2023-06-19T19:15:31.915Z,25.03
2023-06-19T19:17:58.551Z,24.97
2023-06-19T19:20:25.506Z,24.92
2023-06-19T19:22:52.208Z,24.89
2023-06-19T19:25:18.765Z,24.86
2023-06-19T19:27:45.359Z,24.81
2023-06-19T19:30:13.078Z,24.69
2023-06-19T19:32:39.757Z,24.65
2023-06-19T19:35:06.887Z,24.71
2023-06-19T19:37:33.379Z,24.62
2023-06-19T19:40:00.468Z,24.52
2023-06-19T19:42:28.062Z,24.41
2023-06-19T19:44:54.828Z,24.31
2023-06-19T19:47:21.996Z,23.94
2023-06-19T19:49:48.474Z,24.04
2023-06-19T19:52:15.122Z,23.84
2023-06-19T19:54:41.594Z,23.84
2023-06-19T19:57:08.277Z,23.77
2023-06-19T19:59:37.550Z,23.43
2023-06-19T20:02:04.405Z,23.25
2023-06-19T20:04:30.824Z,23.27
2023-06-19T20:06:57.303Z,23.38
2023-06-19T20:09:23.740Z,23.31
2023-06-19T20:11:51.064Z,23.11
2023-06-19T20:14:17.553Z,22.90
2023-06-19T20:16:47.716Z,22.84
2023-06-19T20:19:17.083Z,22.82
2023-06-19T20:21:44.104Z,22.88
2023-06-19T20:24:10.675Z,22.83
2023-06-19T20:26:37.463Z,22.72
2023-06-19T20:29:06.660Z,22.58
2023-06-19T20:31:33.588Z,22.57
2023-06-19T20:34:00.068Z,22.52
2023-06-19T20:36:27.483Z,22.47
2023-06-19T20:38:54.076Z,22.26
2023-06-19T20:41:20.707Z,22.21
2023-06-19T20:43:49.581Z,22.03
2023-06-19T20:46:16.051Z,21.82
2023-06-19T20:48:44.303Z,21.77
2023-06-19T20:51:11.186Z,21.73
2023-06-19T20:53:37.868Z,21.68
2023-06-19T20:56:04.570Z,21.67
2023-06-19T20:58:34.402Z,21.61
2023-06-19T21:01:01.264Z,21.43
2023-06-19T21:03:31.651Z,21.31
2023-06-19T21:05:58.457Z,21.14
2023-06-19T21:08:31.972Z,20.97
2023-06-19T21:11:01.605Z,20.93
2023-06-19T21:13:28.096Z,20.93
2023-06-19T21:15:54.563Z,20.88
2023-06-19T21:18:20.971Z,20.96
2023-06-19T21:20:47.608Z,20.99
2023-06-19T21:23:14.144Z,20.85
2023-06-19T21:25:40.893Z,20.79
2023-06-19T21:28:07.445Z,20.70
2023-06-19T21:30:33.959Z,20.56
2023-06-19T21:33:00.501Z,20.46
2023-06-19T21:35:27.099Z,20.50
2023-06-19T21:37:53.660Z,20.48
2023-06-19T21:40:20.088Z,20.37
2023-06-19T21:42:46.653Z,20.38
2023-06-19T21:45:13.107Z,20.28
2023-06-19T21:47:40.062Z,20.18
2023-06-19T21:50:07.126Z,20.03
2023-06-19T21:52:34.079Z,19.84
2023-06-19T21:55:00.490Z,19.87
2023-06-19T21:57:26.973Z,19.91
2023-06-19T21:59:53.421Z,19.76
2023-06-19T22:02:21.279Z,19.80
2023-06-19T22:04:47.863Z,19.73
2023-06-19T22:07:15.335Z,19.68
2023-06-19T22:09:41.805Z,19.68
2023-06-19T22:12:09.129Z,19.75
2023-06-19T22:14:41.166Z,19.56
2023-06-19T22:17:08.585Z,19.44
2023-06-19T22:19:36.988Z,19.45
2023-06-19T22:22:03.528Z,19.50
2023-06-19T22:24:30.364Z,19.58
2023-06-19T22:26:56.965Z,19.47
2023-06-19T22:29:23.386Z,19.60
2023-06-19T22:31:50.744Z,19.35
2023-06-19T22:34:17.405Z,19.37
2023-06-19T22:36:44.064Z,19.39
2023-06-19T22:39:10.648Z,19.28
2023-06-19T22:41:38.523Z,19.24
2023-06-19T22:44:05.632Z,19.30
2023-06-19T22:46:32.202Z,19.23
2023-06-19T22:48:58.774Z,19.28
2023-06-19T22:51:25.209Z,19.20
2023-06-19T22:53:51.633Z,19.19
2023-06-19T22:56:18.104Z,19.14
2023-06-19T22:58:45.584Z,19.13
2023-06-19T23:01:12.110Z,19.14
2023-06-19T23:03:41.175Z,19.00
2023-06-19T23:06:08.684Z,19.06
2023-06-19T23:08:41.866Z,19.04
2023-06-19T23:11:09.442Z,19.00
2023-06-19T23:13:40.099Z,19.05
2023-06-19T23:16:10.299Z,18.99
2023-06-19T23:18:37.772Z,18.87
2023-06-19T23:21:04.542Z,18.80
2023-06-19T23:23:33.847Z,18.64
2023-06-19T23:26:03.058Z,18.68
2023-06-19T23:28:32.609Z,18.64
2023-06-19T23:31:00.233Z,18.70
2023-06-19T23:33:27.096Z,18.75
2023-06-19T23:35:57.321Z,18.81
2023-06-19T23:38:26.635Z,18.91
2023-06-19T23:40:53.309Z,18.98
2023-06-19T23:43:19.766Z,18.98
2023-06-19T23:45:46.663Z,18.94
2023-06-19T23:48:13.362Z,19.03
2023-06-19T23:50:39.757Z,19.02
2023-06-19T23:53:06.284Z,19.01
2023-06-19T23:55:32.828Z,18.95
2023-06-19T23:57:59.361Z,18.98
